sensor_id;sensor_type;location;lat;lon;timestamp;pressure;altitude;pressure_sealevel;temperature;humidity
19783;BME280;10051;40.294;-3.754;2023-03-16T00:01:39;94082.97;;;14.82;44.76
19783;BME280;10051;40.294;-3.754;2023-03-16T00:04:05;94083.41;;;14.76;44.26
19783;BME280;10051;40.294;-3.754;2023-03-16T00:06:30;93996.63;;;14.15;44.40
19783;BME280;10051;40.294;-3.754;2023-03-16T00:08:56;94078.56;;;14.69;44.67
19783;BME280;10051;40.294;-3.754;2023-03-16T00:11:27;94075.44;;;14.67;44.36
19783;BME280;10051;40.294;-3.754;2023-03-16T00:13:52;94059.78;;;14.48;44.47
19783;BME280;10051;40.294;-3.754;2023-03-16T00:16:18;94022.34;;;14.23;44.93
19783;BME280;10051;40.294;-3.754;2023-03-16T00:18:43;94052.56;;;14.31;45.35
19783;BME280;10051;40.294;-3.754;2023-03-16T00:21:09;94070.91;;;14.36;45.99
19783;BME280;10051;40.294;-3.754;2023-03-16T00:23:37;94047.81;;;14.19;46.29
19783;BME280;10051;40.294;-3.754;2023-03-16T00:26:05;94048.91;;;14.18;46.04
19783;BME280;10051;40.294;-3.754;2023-03-16T00:28:32;94041.81;;;14.27;45.32
19783;BME280;10051;40.294;-3.754;2023-03-16T00:31:04;94050.16;;;14.52;44.92
19783;BME280;10051;40.294;-3.754;2023-03-16T00:33:30;94048.28;;;14.52;45.31
19783;BME280;10051;40.294;-3.754;2023-03-16T00:36:00;93999.50;;;14.36;44.85
19783;BME280;10051;40.294;-3.754;2023-03-16T00:38:31;94054.94;;;14.81;44.44
19783;BME280;10051;40.294;-3.754;2023-03-16T00:40:56;94049.56;;;14.64;45.17
19783;BME280;10051;40.294;-3.754;2023-03-16T00:43:22;94033.22;;;14.53;45.40
19783;BME280;10051;40.294;-3.754;2023-03-16T00:45:57;93987.84;;;14.37;45.07
19783;BME280;10051;40.294;-3.754;2023-03-16T00:48:23;93953.91;;;14.21;44.82
19783;BME280;10051;40.294;-3.754;2023-03-16T00:50:49;93997.69;;;14.45;44.82
19783;BME280;10051;40.294;-3.754;2023-03-16T00:53:18;94039.94;;;14.68;45.34
19783;BME280;10051;40.294;-3.754;2023-03-16T00:55:44;94015.44;;;14.45;45.54
19783;BME280;10051;40.294;-3.754;2023-03-16T00:58:09;93990.91;;;14.21;45.46
19783;BME280;10051;40.294;-3.754;2023-03-16T01:00:39;93973.03;;;13.87;46.27
19783;BME280;10051;40.294;-3.754;2023-03-16T01:03:05;93976.59;;;13.82;46.79
19783;BME280;10051;40.294;-3.754;2023-03-16T01:05:31;94035.03;;;14.12;47.18
19783;BME280;10051;40.294;-3.754;2023-03-16T01:07:57;93970.84;;;13.80;47.26
19783;BME280;10051;40.294;-3.754;2023-03-16T01:10:26;93983.03;;;13.98;46.88
19783;BME280;10051;40.294;-3.754;2023-03-16T01:12:52;93991.53;;;13.87;47.66
19783;BME280;10051;40.294;-3.754;2023-03-16T01:15:21;93981.72;;;13.56;48.35
19783;BME280;10051;40.294;-3.754;2023-03-16T01:17:46;93979.63;;;13.44;48.49
19783;BME280;10051;40.294;-3.754;2023-03-16T01:20:12;94030.34;;;13.77;48.86
19783;BME280;10051;40.294;-3.754;2023-03-16T01:22:40;93959.25;;;13.21;49.34
19783;BME280;10051;40.294;-3.754;2023-03-16T01:25:06;93979.63;;;13.30;49.63
19783;BME280;10051;40.294;-3.754;2023-03-16T01:27:32;94003.25;;;13.49;49.69
19783;BME280;10051;40.294;-3.754;2023-03-16T01:29:58;94020.97;;;13.71;49.33
19783;BME280;10051;40.294;-3.754;2023-03-16T01:32:24;94015.63;;;13.62;49.55
19783;BME280;10051;40.294;-3.754;2023-03-16T01:34:50;93997.03;;;13.45;49.80
19783;BME280;10051;40.294;-3.754;2023-03-16T01:37:15;93988.72;;;13.60;49.33
19783;BME280;10051;40.294;-3.754;2023-03-16T01:39:41;93966.34;;;13.58;48.54
19783;BME280;10051;40.294;-3.754;2023-03-16T01:42:07;94016.59;;;13.89;48.15
19783;BME280;10051;40.294;-3.754;2023-03-16T01:44:52;94016.16;;;13.96;48.04
19783;BME280;10051;40.294;-3.754;2023-03-16T01:47:20;93978.88;;;13.75;47.75
19783;BME280;10051;40.294;-3.754;2023-03-16T01:49:46;94009.47;;;13.98;47.53
19783;BME280;10051;40.294;-3.754;2023-03-16T01:52:18;94014.75;;;13.98;47.56
19783;BME280;10051;40.294;-3.754;2023-03-16T01:54:59;94016.97;;;14.05;47.29
19783;BME280;10051;40.294;-3.754;2023-03-16T01:57:30;93996.53;;;13.88;47.61
19783;BME280;10051;40.294;-3.754;2023-03-16T02:00:10;94011.03;;;14.00;47.85
19783;BME280;10051;40.294;-3.754;2023-03-16T02:02:43;93931.22;;;13.57;47.67
19783;BME280;10051;40.294;-3.754;2023-03-16T02:05:44;93988.72;;;13.83;48.28
19783;BME280;10051;40.294;-3.754;2023-03-16T02:08:03;93966.28;;;13.49;48.85
19783;BME280;10051;40.294;-3.754;2023-03-16T02:10:30;93960.88;;;13.54;48.69
19783;BME280;10051;40.294;-3.754;2023-03-16T02:12:58;93920.63;;;13.48;48.58
19783;BME280;10051;40.294;-3.754;2023-03-16T02:15:24;93906.94;;;13.46;47.99
19783;BME280;10051;40.294;-3.754;2023-03-16T02:17:50;93956.06;;;13.56;48.94
19783;BME280;10051;40.294;-3.754;2023-03-16T02:23:01;93912.25;;;13.09;49.49
19783;BME280;10051;40.294;-3.754;2023-03-16T02:25:35;93929.25;;;13.17;50.25
19783;BME280;10051;40.294;-3.754;2023-03-16T02:28:29;93950.75;;;13.24;49.94
19783;BME280;10051;40.294;-3.754;2023-03-16T02:30:58;93935.53;;;13.07;51.16
19783;BME280;10051;40.294;-3.754;2023-03-16T02:33:27;93931.22;;;13.12;50.74
19783;BME280;10051;40.294;-3.754;2023-03-16T02:35:55;93900.69;;;12.74;51.69
19783;BME280;10051;40.294;-3.754;2023-03-16T02:38:21;93921.69;;;13.02;51.03
19783;BME280;10051;40.294;-3.754;2023-03-16T02:43:39;93905.25;;;12.68;51.76
19783;BME280;10051;40.294;-3.754;2023-03-16T02:46:06;93884.03;;;12.51;52.08
19783;BME280;10051;40.294;-3.754;2023-03-16T02:48:49;93893.63;;;12.69;51.66
19783;BME280;10051;40.294;-3.754;2023-03-16T02:51:18;93897.31;;;12.82;51.39
19783;BME280;10051;40.294;-3.754;2023-03-16T02:53:43;93885.72;;;12.69;51.48
19783;BME280;10051;40.294;-3.754;2023-03-16T02:56:09;93917.59;;;12.96;51.79
19783;BME280;10051;40.294;-3.754;2023-03-16T02:58:35;93921.34;;;12.81;52.54
19783;BME280;10051;40.294;-3.754;2023-03-16T03:01:01;93916.31;;;12.70;52.81
19783;BME280;10051;40.294;-3.754;2023-03-16T03:03:28;93917.78;;;12.62;53.36
19783;BME280;10051;40.294;-3.754;2023-03-16T03:05:54;93905.03;;;12.42;53.99
19783;BME280;10051;40.294;-3.754;2023-03-16T03:08:19;93907.38;;;12.43;53.93
19783;BME280;10051;40.294;-3.754;2023-03-16T03:10:47;93907.38;;;12.43;54.19
19783;BME280;10051;40.294;-3.754;2023-03-16T03:13:13;93896.84;;;12.43;53.94
19783;BME280;10051;40.294;-3.754;2023-03-16T03:15:39;93855.19;;;12.03;54.62
19783;BME280;10051;40.294;-3.754;2023-03-16T03:18:05;93901.72;;;12.36;54.93
19783;BME280;10051;40.294;-3.754;2023-03-16T03:20:32;93851.31;;;12.01;54.89
19783;BME280;10051;40.294;-3.754;2023-03-16T03:22:57;93862.91;;;12.14;54.42
19783;BME280;10051;40.294;-3.754;2023-03-16T03:25:23;93827.22;;;11.66;55.72
19783;BME280;10051;40.294;-3.754;2023-03-16T03:27:50;93852.06;;;11.73;56.13
19783;BME280;10051;40.294;-3.754;2023-03-16T03:30:20;93892.88;;;12.18;55.60
19783;BME280;10051;40.294;-3.754;2023-03-16T03:32:47;93897.16;;;12.14;55.85
19783;BME280;10051;40.294;-3.754;2023-03-16T03:35:14;93867.19;;;11.96;56.01
19783;BME280;10051;40.294;-3.754;2023-03-16T03:37:41;93884.97;;;12.04;55.99
19783;BME280;10051;40.294;-3.754;2023-03-16T03:40:09;93790.31;;;11.38;56.01
19783;BME280;10051;40.294;-3.754;2023-03-16T03:42:37;93865.34;;;11.82;56.36
19783;BME280;10051;40.294;-3.754;2023-03-16T03:45:04;93806.69;;;11.35;56.58
19783;BME280;10051;40.294;-3.754;2023-03-16T03:47:30;93901.94;;;11.84;58.08
19783;BME280;10051;40.294;-3.754;2023-03-16T03:49:55;93820.53;;;11.26;57.63
19783;BME280;10051;40.294;-3.754;2023-03-16T03:52:21;93814.88;;;11.19;57.88
19783;BME280;10051;40.294;-3.754;2023-03-16T03:54:47;93856.84;;;11.43;58.75
19783;BME280;10051;40.294;-3.754;2023-03-16T03:57:12;93895.69;;;11.66;58.36
19783;BME280;10051;40.294;-3.754;2023-03-16T03:59:38;93890.28;;;11.71;58.29
19783;BME280;10051;40.294;-3.754;2023-03-16T04:02:11;93883.28;;;11.66;57.99
19783;BME280;10051;40.294;-3.754;2023-03-16T04:04:38;93898.81;;;11.68;58.56
19783;BME280;10051;40.294;-3.754;2023-03-16T04:07:04;93898.97;;;11.57;59.36
19783;BME280;10051;40.294;-3.754;2023-03-16T04:09:30;93898.97;;;11.43;59.26
19783;BME280;10051;40.294;-3.754;2023-03-16T04:12:03;93861.09;;;11.25;58.59
19783;BME280;10051;40.294;-3.754;2023-03-16T04:14:30;93894.69;;;11.48;59.02
19783;BME280;10051;40.294;-3.754;2023-03-16T04:16:55;93854.84;;;11.21;58.91
19783;BME280;10051;40.294;-3.754;2023-03-16T04:19:22;93854.84;;;11.21;58.43
19783;BME280;10051;40.294;-3.754;2023-03-16T04:21:49;93888.72;;;11.42;58.72
19783;BME280;10051;40.294;-3.754;2023-03-16T04:24:15;93889.41;;;11.48;58.70
19783;BME280;10051;40.294;-3.754;2023-03-16T04:26:42;93867.09;;;11.12;59.91
19783;BME280;10051;40.294;-3.754;2023-03-16T04:29:12;93891.81;;;11.30;59.96
19783;BME280;10051;40.294;-3.754;2023-03-16T04:31:39;93883.69;;;11.26;60.50
19783;BME280;10051;40.294;-3.754;2023-03-16T04:34:06;93853.63;;;10.99;60.40
19783;BME280;10051;40.294;-3.754;2023-03-16T04:36:33;93871.41;;;11.22;59.81
19783;BME280;10051;40.294;-3.754;2023-03-16T04:38:58;93856.00;;;11.15;59.93
19783;BME280;10051;40.294;-3.754;2023-03-16T04:41:24;93883.50;;;11.23;61.17
19783;BME280;10051;40.294;-3.754;2023-03-16T04:43:50;93856.75;;;11.01;60.91
19783;BME280;10051;40.294;-3.754;2023-03-16T04:46:17;93855.41;;;10.85;61.13
19783;BME280;10051;40.294;-3.754;2023-03-16T04:48:42;93821.06;;;10.62;61.33
19783;BME280;10051;40.294;-3.754;2023-03-16T04:51:08;93805.09;;;10.39;62.05
19783;BME280;10051;40.294;-3.754;2023-03-16T04:53:34;93818.09;;;10.50;61.89
19783;BME280;10051;40.294;-3.754;2023-03-16T04:56:00;93786.34;;;10.46;61.26
19783;BME280;10051;40.294;-3.754;2023-03-16T04:58:26;93852.66;;;11.09;60.66
19783;BME280;10051;40.294;-3.754;2023-03-16T05:00:52;93819.66;;;10.84;60.66
19783;BME280;10051;40.294;-3.754;2023-03-16T05:03:18;93780.13;;;10.56;60.67
19783;BME280;10051;40.294;-3.754;2023-03-16T05:05:45;93867.31;;;11.15;60.57
19783;BME280;10051;40.294;-3.754;2023-03-16T05:08:11;93840.63;;;10.89;60.89
19783;BME280;10051;40.294;-3.754;2023-03-16T05:10:37;93804.16;;;10.68;60.42
19783;BME280;10051;40.294;-3.754;2023-03-16T05:13:04;93791.09;;;10.44;60.99
19783;BME280;10051;40.294;-3.754;2023-03-16T05:15:30;93868.63;;;10.99;60.32
19783;BME280;10051;40.294;-3.754;2023-03-16T05:17:56;93872.69;;;10.91;60.63
19783;BME280;10051;40.294;-3.754;2023-03-16T05:20:22;93875.38;;;10.86;60.74
19783;BME280;10051;40.294;-3.754;2023-03-16T05:22:48;93827.38;;;10.61;60.27
19783;BME280;10051;40.294;-3.754;2023-03-16T05:25:15;93872.69;;;10.91;60.50
19783;BME280;10051;40.294;-3.754;2023-03-16T05:27:43;93851.22;;;10.84;60.26
19783;BME280;10051;40.294;-3.754;2023-03-16T05:30:10;93796.97;;;10.55;60.46
19783;BME280;10051;40.294;-3.754;2023-03-16T05:32:36;93853.84;;;11.03;60.17
19783;BME280;10051;40.294;-3.754;2023-03-16T05:35:03;93861.63;;;11.08;60.25
19783;BME280;10051;40.294;-3.754;2023-03-16T05:37:28;93839.13;;;10.83;60.56
19783;BME280;10051;40.294;-3.754;2023-03-16T05:39:55;93818.44;;;10.62;60.94
19783;BME280;10051;40.294;-3.754;2023-03-16T05:42:22;93833.25;;;10.72;61.19
19783;BME280;10051;40.294;-3.754;2023-03-16T05:44:47;93809.63;;;10.53;61.27
19783;BME280;10051;40.294;-3.754;2023-03-16T05:47:13;93834.75;;;10.78;61.20
19783;BME280;10051;40.294;-3.754;2023-03-16T05:49:39;93847.72;;;10.75;61.80
19783;BME280;10051;40.294;-3.754;2023-03-16T05:52:05;93855.53;;;10.80;61.49
19783;BME280;10051;40.294;-3.754;2023-03-16T05:54:30;93795.00;;;10.47;61.73
19783;BME280;10051;40.294;-3.754;2023-03-16T05:56:56;93806.28;;;10.66;61.34
19783;BME280;10051;40.294;-3.754;2023-03-16T05:59:22;93838.19;;;10.79;61.56
19783;BME280;10051;40.294;-3.754;2023-03-16T06:01:48;93852.06;;;10.98;60.90
19783;BME280;10051;40.294;-3.754;2023-03-16T06:04:15;93853.28;;;10.87;61.13
19783;BME280;10051;40.294;-3.754;2023-03-16T06:06:40;93849.59;;;10.88;61.25
19783;BME280;10051;40.294;-3.754;2023-03-16T06:09:06;93793.44;;;10.46;61.13
19783;BME280;10051;40.294;-3.754;2023-03-16T06:11:32;93811.25;;;10.49;61.00
19783;BME280;10051;40.294;-3.754;2023-03-16T06:13:59;93856.44;;;10.70;61.29
19783;BME280;10051;40.294;-3.754;2023-03-16T06:16:25;93853.19;;;10.59;61.45
19783;BME280;10051;40.294;-3.754;2023-03-16T06:18:51;93825.69;;;10.32;62.09
19783;BME280;10051;40.294;-3.754;2023-03-16T06:21:16;93839.31;;;10.34;62.36
19783;BME280;10051;40.294;-3.754;2023-03-16T06:23:42;93796.91;;;10.22;61.98
19783;BME280;10051;40.294;-3.754;2023-03-16T06:26:07;93858.44;;;10.59;61.92
19783;BME280;10051;40.294;-3.754;2023-03-16T06:28:33;93801.41;;;10.40;61.20
19783;BME280;10051;40.294;-3.754;2023-03-16T06:30:59;93798.34;;;10.52;60.17
19783;BME280;10051;40.294;-3.754;2023-03-16T06:33:25;93863.97;;;11.10;60.02
19783;BME280;10051;40.294;-3.754;2023-03-16T06:35:50;93844.41;;;10.83;60.15
19783;BME280;10051;40.294;-3.754;2023-03-16T06:38:17;93863.09;;;10.81;60.74
19783;BME280;10051;40.294;-3.754;2023-03-16T06:40:43;93865.28;;;10.93;60.52
19783;BME280;10051;40.294;-3.754;2023-03-16T06:43:09;93863.69;;;10.78;60.86
19783;BME280;10051;40.294;-3.754;2023-03-16T06:45:35;93868.75;;;10.75;61.56
19783;BME280;10051;40.294;-3.754;2023-03-16T06:48:01;93863.47;;;10.75;61.09
19783;BME280;10051;40.294;-3.754;2023-03-16T06:50:27;93869.03;;;11.06;59.79
19783;BME280;10051;40.294;-3.754;2023-03-16T06:52:53;93858.34;;;11.16;58.81
19783;BME280;10051;40.294;-3.754;2023-03-16T06:55:19;93753.28;;;10.59;58.63
19783;BME280;10051;40.294;-3.754;2023-03-16T06:57:45;93786.31;;;10.65;59.00
19783;BME280;10051;40.294;-3.754;2023-03-16T07:00:13;93866.53;;;11.15;59.88
19783;BME280;10051;40.294;-3.754;2023-03-16T07:02:40;93759.84;;;10.43;59.33
19783;BME280;10051;40.294;-3.754;2023-03-16T07:05:07;93864.06;;;11.05;60.46
19783;BME280;10051;40.294;-3.754;2023-03-16T07:07:35;93858.59;;;11.01;60.61
19783;BME280;10051;40.294;-3.754;2023-03-16T07:10:01;93843.00;;;10.71;60.91
19783;BME280;10051;40.294;-3.754;2023-03-16T07:12:29;93857.47;;;10.88;61.05
19783;BME280;10051;40.294;-3.754;2023-03-16T07:14:55;93744.63;;;10.20;60.64
19783;BME280;10051;40.294;-3.754;2023-03-16T07:17:21;93770.19;;;10.34;60.77
19783;BME280;10051;40.294;-3.754;2023-03-16T07:19:46;93796.00;;;10.51;61.45
19783;BME280;10051;40.294;-3.754;2023-03-16T07:22:12;93809.03;;;10.75;60.54
19783;BME280;10051;40.294;-3.754;2023-03-16T07:24:38;93840.78;;;11.12;59.91
19783;BME280;10051;40.294;-3.754;2023-03-16T07:27:03;93850.34;;;11.08;59.86
19783;BME280;10051;40.294;-3.754;2023-03-16T07:29:29;93869.97;;;11.29;59.84
19783;BME280;10051;40.294;-3.754;2023-03-16T07:31:55;93848.38;;;11.13;59.86
19783;BME280;10051;40.294;-3.754;2023-03-16T07:34:20;93878.50;;;11.54;59.76
19783;BME280;10051;40.294;-3.754;2023-03-16T07:36:46;93885.81;;;11.71;59.10
19783;BME280;10051;40.294;-3.754;2023-03-16T07:39:17;93883.69;;;11.87;58.39
19783;BME280;10051;40.294;-3.754;2023-03-16T07:41:42;93882.50;;;11.94;57.87
19783;BME280;10051;40.294;-3.754;2023-03-16T07:44:08;93839.66;;;11.74;56.36
19783;BME280;10051;40.294;-3.754;2023-03-16T07:46:36;93840.06;;;11.81;55.39
19783;BME280;10051;40.294;-3.754;2023-03-16T07:49:01;93883.56;;;12.20;55.41
19783;BME280;10051;40.294;-3.754;2023-03-16T07:51:27;93847.50;;;12.07;54.79
19783;BME280;10051;40.294;-3.754;2023-03-16T07:53:53;93853.13;;;12.14;54.31
19783;BME280;10051;40.294;-3.754;2023-03-16T07:56:19;93835.94;;;12.31;53.47
19783;BME280;10051;40.294;-3.754;2023-03-16T07:58:46;93856.81;;;12.64;52.84
19783;BME280;10051;40.294;-3.754;2023-03-16T08:01:11;93897.44;;;13.00;52.25
19783;BME280;10051;40.294;-3.754;2023-03-16T08:03:37;93898.38;;;13.27;51.80
19783;BME280;10051;40.294;-3.754;2023-03-16T08:06:03;93847.34;;;13.08;51.37
19783;BME280;10051;40.294;-3.754;2023-03-16T08:08:30;93845.13;;;13.24;51.10
19783;BME280;10051;40.294;-3.754;2023-03-16T08:10:56;93899.78;;;13.78;50.17
19783;BME280;10051;40.294;-3.754;2023-03-16T08:13:21;93833.81;;;13.33;50.06
19783;BME280;10051;40.294;-3.754;2023-03-16T08:15:51;93873.34;;;13.78;49.12
19783;BME280;10051;40.294;-3.754;2023-03-16T08:18:24;93894.34;;;13.75;50.12
19783;BME280;10051;40.294;-3.754;2023-03-16T08:20:49;93883.28;;;13.73;49.45
19783;BME280;10051;40.294;-3.754;2023-03-16T08:23:15;93900.44;;;13.84;49.01
19783;BME280;10051;40.294;-3.754;2023-03-16T08:25:41;93900.31;;;13.89;49.50
19783;BME280;10051;40.294;-3.754;2023-03-16T08:28:07;93885.84;;;13.95;48.99
19783;BME280;10051;40.294;-3.754;2023-03-16T08:30:34;93885.44;;;14.11;48.09
19783;BME280;10051;40.294;-3.754;2023-03-16T08:33:00;93858.66;;;14.04;47.49
19783;BME280;10051;40.294;-3.754;2023-03-16T08:35:28;93875.19;;;14.18;47.06
19783;BME280;10051;40.294;-3.754;2023-03-16T08:37:54;93873.69;;;14.35;46.72
19783;BME280;10051;40.294;-3.754;2023-03-16T08:40:20;93913.88;;;14.81;46.30
19783;BME280;10051;40.294;-3.754;2023-03-16T08:42:47;93919.81;;;14.78;45.48
19783;BME280;10051;40.294;-3.754;2023-03-16T08:45:15;93928.53;;;14.78;45.88
19783;BME280;10051;40.294;-3.754;2023-03-16T08:47:42;93932.09;;;14.82;45.17
19783;BME280;10051;40.294;-3.754;2023-03-16T08:50:10;93933.22;;;14.90;45.02
19783;BME280;10051;40.294;-3.754;2023-03-16T08:52:37;93889.13;;;14.85;44.87
19783;BME280;10051;40.294;-3.754;2023-03-16T08:55:05;93913.25;;;15.28;44.55
19783;BME280;10051;40.294;-3.754;2023-03-16T08:57:32;93930.66;;;15.64;43.76
19783;BME280;10051;40.294;-3.754;2023-03-16T08:59:58;93880.16;;;15.52;43.22
19783;BME280;10051;40.294;-3.754;2023-03-16T09:02:25;93916.72;;;15.76;42.79
19783;BME280;10051;40.294;-3.754;2023-03-16T09:04:51;93918.75;;;15.70;42.73
19783;BME280;10051;40.294;-3.754;2023-03-16T09:07:17;93882.94;;;15.64;42.32
19783;BME280;10051;40.294;-3.754;2023-03-16T09:09:43;93913.41;;;15.97;41.97
19783;BME280;10051;40.294;-3.754;2023-03-16T09:12:09;93924.44;;;16.08;41.17
19783;BME280;10051;40.294;-3.754;2023-03-16T09:14:36;93929.84;;;16.20;41.19
19783;BME280;10051;40.294;-3.754;2023-03-16T09:17:03;93923.75;;;16.19;41.12
19783;BME280;10051;40.294;-3.754;2023-03-16T09:19:29;93918.34;;;16.07;41.16
19783;BME280;10051;40.294;-3.754;2023-03-16T09:21:57;93906.28;;;16.18;39.23
19783;BME280;10051;40.294;-3.754;2023-03-16T09:24:23;93927.66;;;16.52;38.55
19783;BME280;10051;40.294;-3.754;2023-03-16T09:26:50;93919.19;;;16.59;39.42
19783;BME280;10051;40.294;-3.754;2023-03-16T09:29:16;93894.72;;;16.53;39.26
19783;BME280;10051;40.294;-3.754;2023-03-16T09:31:43;93881.34;;;16.41;38.52
19783;BME280;10051;40.294;-3.754;2023-03-16T09:34:10;93900.22;;;16.48;38.07
19783;BME280;10051;40.294;-3.754;2023-03-16T09:36:36;93879.81;;;16.40;37.81
19783;BME280;10051;40.294;-3.754;2023-03-16T09:39:01;93867.50;;;16.56;36.82
19783;BME280;10051;40.294;-3.754;2023-03-16T09:41:47;93929.31;;;17.08;36.90
19783;BME280;10051;40.294;-3.754;2023-03-16T09:44:24;93928.84;;;17.27;35.93
19783;BME280;10051;40.294;-3.754;2023-03-16T09:46:53;93927.09;;;17.31;36.63
19783;BME280;10051;40.294;-3.754;2023-03-16T09:49:23;93824.59;;;16.75;36.33
19783;BME280;10051;40.294;-3.754;2023-03-16T09:54:58;93927.19;;;17.68;35.35
19783;BME280;10051;40.294;-3.754;2023-03-16T09:57:31;93927.88;;;17.78;35.40
19783;BME280;10051;40.294;-3.754;2023-03-16T10:00:13;93833.97;;;17.28;35.25
19783;BME280;10051;40.294;-3.754;2023-03-16T10:03:08;93841.97;;;17.52;34.86
19783;BME280;10051;40.294;-3.754;2023-03-16T10:05:37;93869.50;;;17.81;35.04
19783;BME280;10051;40.294;-3.754;2023-03-16T10:08:12;93825.94;;;17.74;34.41
19783;BME280;10051;40.294;-3.754;2023-03-16T10:10:53;93916.09;;;18.37;34.39
19783;BME280;10051;40.294;-3.754;2023-03-16T10:16:26;93912.97;;;18.48;35.10
19783;BME280;10051;40.294;-3.754;2023-03-16T10:19:09;93882.72;;;18.40;34.60
19783;BME280;10051;40.294;-3.754;2023-03-16T10:21:39;93859.22;;;18.30;34.15
19783;BME280;10051;40.294;-3.754;2023-03-16T10:24:17;93892.78;;;18.59;34.65
19783;BME280;10051;40.294;-3.754;2023-03-16T10:26:53;93876.16;;;18.37;34.54
19783;BME280;10051;40.294;-3.754;2023-03-16T10:29:26;93855.53;;;18.47;34.83
19783;BME280;10051;40.294;-3.754;2023-03-16T10:32:00;93803.69;;;18.16;34.64
19783;BME280;10051;40.294;-3.754;2023-03-16T10:34:27;93878.22;;;18.69;34.96
19783;BME280;10051;40.294;-3.754;2023-03-16T10:36:53;93874.75;;;18.81;35.54
19783;BME280;10051;40.294;-3.754;2023-03-16T10:39:19;93837.50;;;18.68;35.45
19783;BME280;10051;40.294;-3.754;2023-03-16T10:41:54;93797.91;;;18.67;34.73
19783;BME280;10051;40.294;-3.754;2023-03-16T10:44:27;93858.28;;;19.04;35.05
19783;BME280;10051;40.294;-3.754;2023-03-16T10:47:00;93863.28;;;19.21;35.10
19783;BME280;10051;40.294;-3.754;2023-03-16T10:49:38;93795.78;;;18.72;34.65
19783;BME280;10051;40.294;-3.754;2023-03-16T10:52:23;93859.94;;;19.24;35.16
19783;BME280;10051;40.294;-3.754;2023-03-16T10:55:00;93852.94;;;19.32;35.23
19783;BME280;10051;40.294;-3.754;2023-03-16T10:57:33;93838.41;;;19.45;34.64
19783;BME280;10051;40.294;-3.754;2023-03-16T11:00:06;93795.09;;;19.04;35.19
19783;BME280;10051;40.294;-3.754;2023-03-16T11:02:37;93780.53;;;19.14;35.04
19783;BME280;10051;40.294;-3.754;2023-03-16T11:05:31;93837.81;;;19.68;34.89
19783;BME280;10051;40.294;-3.754;2023-03-16T11:08:19;93833.16;;;19.81;34.74
19783;BME280;10051;40.294;-3.754;2023-03-16T11:10:54;93826.22;;;19.93;34.48
19783;BME280;10051;40.294;-3.754;2023-03-16T11:13:31;93784.81;;;19.83;34.32
19783;BME280;10051;40.294;-3.754;2023-03-16T11:18:36;93789.63;;;19.93;34.28
19783;BME280;10051;40.294;-3.754;2023-03-16T11:21:14;93760.47;;;19.84;34.13
19783;BME280;10051;40.294;-3.754;2023-03-16T11:23:50;93822.00;;;20.43;32.81
19783;BME280;10051;40.294;-3.754;2023-03-16T11:26:22;93771.44;;;20.15;33.21
19783;BME280;10051;40.294;-3.754;2023-03-16T11:28:56;93791.63;;;20.32;31.74
19783;BME280;10051;40.294;-3.754;2023-03-16T11:31:50;93804.16;;;20.47;31.27
19783;BME280;10051;40.294;-3.754;2023-03-16T11:34:22;93753.44;;;20.47;30.79
19783;BME280;10051;40.294;-3.754;2023-03-16T11:36:55;93804.44;;;21.01;31.11
19783;BME280;10051;40.294;-3.754;2023-03-16T11:39:43;93800.16;;;20.97;31.05
19783;BME280;10051;40.294;-3.754;2023-03-16T11:50:36;93785.13;;;21.54;31.50
19783;BME280;10051;40.294;-3.754;2023-03-16T11:56:07;93790.25;;;21.63;29.43
19783;BME280;10051;40.294;-3.754;2023-03-16T12:10:14;93756.72;;;21.96;29.52
19783;BME280;10051;40.294;-3.754;2023-03-16T12:13:15;93717.28;;;21.63;29.78
19783;BME280;10051;40.294;-3.754;2023-03-16T12:18:23;93753.22;;;22.19;29.61
19783;BME280;10051;40.294;-3.754;2023-03-16T12:21:02;93749.25;;;22.40;28.84
19783;BME280;10051;40.294;-3.754;2023-03-16T12:23:40;93670.16;;;22.16;29.75
19783;BME280;10051;40.294;-3.754;2023-03-16T12:26:08;93700.63;;;22.68;29.17
19783;BME280;10051;40.294;-3.754;2023-03-16T12:28:34;93702.34;;;22.84;28.64
19783;BME280;10051;40.294;-3.754;2023-03-16T12:31:10;93711.38;;;23.10;27.51
19783;BME280;10051;40.294;-3.754;2023-03-16T12:33:46;93684.31;;;23.22;27.10
19783;BME280;10051;40.294;-3.754;2023-03-16T12:39:13;93662.94;;;23.33;27.00
19783;BME280;10051;40.294;-3.754;2023-03-16T12:42:04;93708.38;;;23.60;27.17
19783;BME280;10051;40.294;-3.754;2023-03-16T12:44:56;93691.50;;;23.63;25.96
19783;BME280;10051;40.294;-3.754;2023-03-16T12:50:20;93688.84;;;23.70;25.40
19783;BME280;10051;40.294;-3.754;2023-03-16T12:52:51;93655.50;;;23.68;25.63
19783;BME280;10051;40.294;-3.754;2023-03-16T12:57:44;93676.19;;;23.67;26.26
19783;BME280;10051;40.294;-3.754;2023-03-16T13:00:12;93606.09;;;23.16;26.50
19783;BME280;10051;40.294;-3.754;2023-03-16T13:02:52;93623.66;;;23.59;26.28
19783;BME280;10051;40.294;-3.754;2023-03-16T13:05:31;93656.41;;;23.94;25.53
19783;BME280;10051;40.294;-3.754;2023-03-16T13:08:07;93655.19;;;23.80;25.78
19783;BME280;10051;40.294;-3.754;2023-03-16T13:10:33;93631.66;;;23.55;26.05
19783;BME280;10051;40.294;-3.754;2023-03-16T13:13:14;93607.81;;;23.43;25.97
19783;BME280;10051;40.294;-3.754;2023-03-16T13:15:44;93638.28;;;23.72;25.96
19783;BME280;10051;40.294;-3.754;2023-03-16T13:26:09;93624.06;;;23.65;25.16
19783;BME280;10051;40.294;-3.754;2023-03-16T13:28:38;93596.81;;;23.59;22.70
19783;BME280;10051;40.294;-3.754;2023-03-16T13:31:35;93610.22;;;23.59;23.10
19783;BME280;10051;40.294;-3.754;2023-03-16T13:34:02;93600.97;;;23.49;23.47
19783;BME280;10051;40.294;-3.754;2023-03-16T13:36:31;93590.53;;;23.33;24.00
19783;BME280;10051;40.294;-3.754;2023-03-16T13:39:12;93603.97;;;23.37;23.28
19783;BME280;10051;40.294;-3.754;2023-03-16T13:41:39;93577.09;;;23.29;23.03
19783;BME280;10051;40.294;-3.754;2023-03-16T13:44:12;93598.22;;;23.35;22.99
19783;BME280;10051;40.294;-3.754;2023-03-16T13:46:39;93586.28;;;23.28;23.23
19783;BME280;10051;40.294;-3.754;2023-03-16T13:49:04;93569.72;;;23.19;24.00
19783;BME280;10051;40.294;-3.754;2023-03-16T13:51:33;93589.38;;;23.34;24.06
19783;BME280;10051;40.294;-3.754;2023-03-16T13:54:27;93577.84;;;23.26;23.94
19783;BME280;10051;40.294;-3.754;2023-03-16T13:57:03;93533.97;;;22.97;24.25